createdAt,value
2023-02-14T00:01:11.795Z,98824.72
2023-02-14T00:03:39.211Z,98819.63
2023-02-14T00:06:11.932Z,98809.06
2023-02-14T00:08:41.120Z,98816.19
2023-02-14T00:11:11.060Z,98826.44
2023-02-14T00:13:38.352Z,98825.53
2023-02-14T00:16:05.626Z,98818.47
2023-02-14T00:18:51.480Z,98833.09
2023-02-14T00:21:18.457Z,98823.50
2023-02-14T00:23:45.444Z,98837.47
2023-02-14T00:26:15.535Z,98827.19
2023-02-14T00:28:43.663Z,98828.00
2023-02-14T00:31:10.979Z,98842.56
2023-02-14T00:33:38.182Z,98840.81
2023-02-14T00:36:07.346Z,98836.34
2023-02-14T00:38:35.076Z,98825.78
2023-02-14T00:41:02.559Z,98857.56
2023-02-14T00:43:29.910Z,98833.94
2023-02-14T00:45:58.068Z,98844.38
2023-02-14T00:48:25.639Z,98854.88
2023-02-14T00:50:52.632Z,98856.69
2023-02-14T00:53:19.694Z,98843.69
2023-02-14T00:55:47.246Z,98860.03
2023-02-14T00:58:15.340Z,98839.22
2023-02-14T01:00:42.439Z,98836.75
2023-02-14T01:03:09.456Z,98833.19
2023-02-14T01:05:36.500Z,98862.72
2023-02-14T01:08:04.834Z,98819.16
2023-02-14T01:10:31.887Z,98854.22
2023-02-14T01:12:59.217Z,98848.81
2023-02-14T01:15:27.858Z,98861.69
2023-02-14T01:17:54.993Z,98873.00
2023-02-14T01:20:22.150Z,98869.66
2023-02-14T01:22:49.151Z,98859.25
2023-02-14T01:25:16.142Z,98806.97
2023-02-14T01:27:43.320Z,98856.41
2023-02-14T01:30:11.473Z,98874.69
2023-02-14T01:32:38.451Z,98875.53
2023-02-14T01:35:05.722Z,98854.78
2023-02-14T01:37:32.939Z,98860.78
2023-02-14T01:40:00.513Z,98838.84
2023-02-14T01:42:27.520Z,98803.22
2023-02-14T01:45:01.024Z,98889.19
2023-02-14T01:47:31.115Z,98870.06
2023-02-14T01:50:03.240Z,98878.09
2023-02-14T01:52:37.766Z,98880.78
2023-02-14T01:55:13.156Z,98872.13
2023-02-14T01:57:49.939Z,98879.91
2023-02-14T02:00:36.632Z,98880.59
2023-02-14T02:03:05.442Z,98883.19
2023-02-14T02:05:32.720Z,98885.59
2023-02-14T02:08:01.064Z,98893.22
2023-02-14T02:10:29.122Z,98881.94
2023-02-14T02:13:01.169Z,98875.63
2023-02-14T02:15:32.272Z,98889.53
2023-02-14T02:18:16.974Z,98885.06
2023-02-14T02:21:22.203Z,98896.44
2023-02-14T02:24:07.261Z,98897.22
2023-02-14T02:26:53.522Z,98901.38
2023-02-14T02:29:23.353Z,98890.06
2023-02-14T02:32:08.408Z,98892.63
2023-02-14T02:34:53.954Z,98904.91
2023-02-14T02:37:39.285Z,98880.50
2023-02-14T02:40:21.282Z,98913.56
2023-02-14T02:43:03.454Z,98914.47
2023-02-14T02:46:43.487Z,98908.59
2023-02-14T02:49:53.140Z,98906.84
2023-02-14T02:53:01.152Z,98921.38
2023-02-14T02:55:57.290Z,98907.53
2023-02-14T02:58:31.282Z,98895.31
2023-02-14T03:01:02.298Z,98889.06
2023-02-14T03:03:50.883Z,98895.25
2023-02-14T03:06:24.560Z,98833.94
2023-02-14T03:08:51.987Z,98917.03
2023-02-14T03:11:19.105Z,98916.97
2023-02-14T03:14:04.242Z,98913.38
2023-02-14T03:16:56.045Z,98930.41
2023-02-14T03:19:53.741Z,98915.41
2023-02-14T03:22:58.800Z,98916.72
2023-02-14T03:25:34.399Z,98886.03
2023-02-14T03:28:10.433Z,98920.63
2023-02-14T03:30:48.505Z,98904.09
2023-02-14T03:33:35.365Z,98911.19
2023-02-14T03:36:21.611Z,98916.28
2023-02-14T03:39:12.212Z,98916.22
2023-02-14T03:42:06.294Z,98941.56
2023-02-14T03:44:36.897Z,98934.72
2023-02-14T03:47:13.819Z,98942.47
2023-02-14T03:49:47.047Z,98940.75
2023-02-14T03:52:15.549Z,98944.13
2023-02-14T03:54:43.494Z,98945.81
2023-02-14T03:57:13.309Z,98947.53
2023-02-14T03:59:41.654Z,98878.72
2023-02-14T04:02:20.036Z,98949.28
2023-02-14T04:04:50.008Z,98937.03
2023-02-14T04:07:20.210Z,98958.00
2023-02-14T04:09:47.970Z,98962.28
2023-02-14T04:12:18.165Z,98945.84
2023-02-14T04:14:46.936Z,98958.88
2023-02-14T04:17:32.673Z,98898.81
2023-02-14T04:19:59.689Z,98945.09
2023-02-14T04:22:27.579Z,98942.59
2023-02-14T04:24:54.561Z,98961.81
2023-02-14T04:27:21.570Z,98961.03
2023-02-14T04:29:50.249Z,98947.13
2023-02-14T04:32:20.401Z,98934.75
2023-02-14T04:34:48.348Z,98971.16
2023-02-14T04:37:17.775Z,98970.31
2023-02-14T04:39:44.780Z,98977.00
2023-02-14T04:42:11.862Z,98961.09
2023-02-14T04:44:39.100Z,98966.22
2023-02-14T04:47:06.719Z,98915.53
2023-02-14T04:49:34.369Z,98978.03
2023-02-14T04:52:01.519Z,98995.50
2023-02-14T04:54:29.034Z,98987.63
2023-02-14T04:56:56.052Z,98986.72
2023-02-14T04:59:24.828Z,99005.97
2023-02-14T05:01:53.208Z,98996.22
2023-02-14T05:04:20.663Z,99011.22
2023-02-14T05:06:47.730Z,99019.94
2023-02-14T05:09:14.823Z,99010.53
2023-02-14T05:11:42.098Z,98992.44
2023-02-14T05:14:09.180Z,99019.41
2023-02-14T05:16:36.240Z,99010.13
2023-02-14T05:19:03.317Z,99002.09
2023-02-14T05:21:33.186Z,99036.91
2023-02-14T05:24:01.344Z,99009.25
2023-02-14T05:26:28.698Z,99036.38
2023-02-14T05:28:55.986Z,99038.97
2023-02-14T05:31:23.383Z,99040.75
2023-02-14T05:33:50.528Z,99042.59
2023-02-14T05:36:17.569Z,99025.31
2023-02-14T05:38:44.668Z,99040.16
2023-02-14T05:41:11.660Z,99046.28
2023-02-14T05:43:38.744Z,99027.19
2023-02-14T05:46:05.947Z,99057.50
2023-02-14T05:48:33.580Z,99055.78
2023-02-14T05:51:09.013Z,98952.41
2023-02-14T05:53:36.438Z,99048.34
2023-02-14T05:56:04.092Z,99041.53
2023-02-14T05:58:31.557Z,99039.00
2023-02-14T06:01:00.803Z,99048.72
2023-02-14T06:03:28.338Z,99051.13
2023-02-14T06:05:55.392Z,99044.41
2023-02-14T06:08:22.652Z,99038.41
2023-02-14T06:10:49.725Z,99050.72
2023-02-14T06:13:16.949Z,99061.09
2023-02-14T06:15:44.057Z,99047.44
2023-02-14T06:18:11.154Z,99029.47
2023-02-14T06:20:38.222Z,99036.56
2023-02-14T06:23:05.247Z,99001.88
2023-02-14T06:25:32.514Z,99035.94
2023-02-14T06:28:00.126Z,99048.97
2023-02-14T06:30:27.935Z,99044.81
2023-02-14T06:32:55.000Z,99053.78
2023-02-14T06:35:22.616Z,99054.22
2023-02-14T06:37:49.740Z,99058.00
2023-02-14T06:40:16.855Z,99059.88
2023-02-14T06:42:44.557Z,99056.59
2023-02-14T06:45:11.717Z,99008.72
2023-02-14T06:47:38.771Z,99074.91
2023-02-14T06:50:06.554Z,99069.59
2023-02-14T06:52:34.816Z,99083.59
2023-02-14T06:55:01.905Z,99073.31
2023-02-14T06:57:30.979Z,99091.41
2023-02-14T06:59:57.995Z,99081.75
2023-02-14T07:02:25.281Z,99090.44
2023-02-14T07:04:52.460Z,99087.78
2023-02-14T07:07:19.473Z,99097.25
2023-02-14T07:09:46.584Z,99086.13
2023-02-14T07:12:13.617Z,99093.88
2023-02-14T07:14:40.763Z,99100.13
2023-02-14T07:17:07.767Z,99111.09
2023-02-14T07:19:35.327Z,99108.50
2023-02-14T07:22:02.355Z,99108.38
2023-02-14T07:24:29.455Z,99110.03
2023-02-14T07:26:56.575Z,99107.56
2023-02-14T07:29:23.677Z,99098.75
2023-02-14T07:31:50.783Z,99110.63
2023-02-14T07:34:17.868Z,99104.50
2023-02-14T07:36:44.853Z,99109.53
2023-02-14T07:39:11.914Z,99106.09
2023-02-14T07:41:38.989Z,99131.13
2023-02-14T07:44:10.150Z,99130.97
2023-02-14T07:46:37.313Z,98967.13
2023-02-14T07:49:04.372Z,99141.47
2023-02-14T07:51:31.404Z,99146.72
2023-02-14T07:53:58.488Z,99133.72
2023-02-14T07:56:25.597Z,99144.34
2023-02-14T07:58:52.650Z,99137.78
2023-02-14T08:01:19.865Z,99144.94
2023-02-14T08:03:49.772Z,99132.13
2023-02-14T08:06:18.439Z,99147.06
2023-02-14T08:08:46.209Z,99153.13
2023-02-14T08:11:33.858Z,99156.69
2023-02-14T08:14:01.336Z,99162.53
2023-02-14T08:16:28.457Z,99142.00
2023-02-14T08:18:55.672Z,99146.72
2023-02-14T08:21:22.798Z,99167.13
2023-02-14T08:23:49.872Z,99159.34
2023-02-14T08:26:17.432Z,99173.25
2023-02-14T08:28:45.026Z,99176.41
2023-02-14T08:31:12.473Z,99184.69
2023-02-14T08:33:39.737Z,99166.53
2023-02-14T08:36:06.902Z,99190.00
2023-02-14T08:38:33.930Z,99198.78
2023-02-14T08:41:05.043Z,99192.31
2023-02-14T08:43:34.495Z,99196.09
2023-02-14T08:46:02.124Z,99199.16
2023-02-14T08:48:29.467Z,99221.88
2023-02-14T08:50:56.496Z,99209.00
2023-02-14T08:53:24.254Z,99208.94
2023-02-14T08:55:51.358Z,99218.44
2023-02-14T08:58:18.625Z,99227.44
2023-02-14T09:00:45.694Z,99226.66
2023-02-14T09:03:12.765Z,99229.53
2023-02-14T09:05:39.741Z,99232.28
2023-02-14T09:08:07.916Z,99228.09
2023-02-14T09:10:34.956Z,99243.09
2023-02-14T09:13:02.036Z,99242.56
2023-02-14T09:15:29.120Z,99250.47
2023-02-14T09:17:56.250Z,99257.53
2023-02-14T09:20:23.578Z,99243.94
2023-02-14T09:22:50.869Z,99251.03
2023-02-14T09:25:18.012Z,99193.78
2023-02-14T09:27:45.036Z,99250.16
2023-02-14T09:30:12.977Z,99249.50
2023-02-14T09:32:40.110Z,99242.47
2023-02-14T09:35:07.546Z,99255.81
2023-02-14T09:37:34.532Z,99242.13
2023-02-14T09:40:01.489Z,99250.81
2023-02-14T09:42:51.803Z,99271.41
2023-02-14T09:45:25.382Z,99274.00
2023-02-14T09:48:02.809Z,99231.97
2023-02-14T09:50:34.714Z,99280.09
2023-02-14T09:53:23.430Z,99192.03
2023-02-14T09:56:42.772Z,99285.59
2023-02-14T09:59:34.989Z,99284.31
2023-02-14T10:02:36.189Z,99293.00
2023-02-14T10:05:44.435Z,99302.03
2023-02-14T10:08:20.394Z,99299.38
2023-02-14T10:11:00.663Z,99323.97
2023-02-14T10:13:46.467Z,99320.50
2023-02-14T10:16:27.198Z,99313.28
2023-02-14T10:18:54.373Z,99319.28
2023-02-14T10:21:42.854Z,99329.81
2023-02-14T10:24:35.736Z,99324.47
2023-02-14T10:27:30.324Z,99346.22
2023-02-14T10:29:57.497Z,99329.78
2023-02-14T10:33:11.088Z,99354.47
2023-02-14T10:35:44.822Z,99344.81
2023-02-14T10:38:23.719Z,99361.25
2023-02-14T10:41:23.052Z,99362.38
2023-02-14T10:43:54.975Z,99332.59
2023-02-14T10:46:33.898Z,99363.91
2023-02-14T10:49:21.315Z,99363.31
2023-02-14T10:51:58.566Z,99337.03
2023-02-14T10:54:32.682Z,99366.22
2023-02-14T10:56:59.716Z,99337.59
2023-02-14T10:59:29.832Z,99376.69
2023-02-14T11:01:59.515Z,99367.53
2023-02-14T11:04:28.459Z,99377.09
2023-02-14T11:06:55.541Z,99366.22
2023-02-14T11:09:22.617Z,99389.34
2023-02-14T11:12:00.632Z,99327.97
2023-02-14T11:14:37.023Z,99395.81
2023-02-14T11:17:32.541Z,99405.25
2023-02-14T11:20:03.197Z,99398.41
2023-02-14T11:22:33.916Z,99384.50
2023-02-14T11:25:19.472Z,99391.28
2023-02-14T11:27:50.295Z,99420.00
2023-02-14T11:30:30.327Z,99417.22
2023-02-14T11:32:57.790Z,99426.47
2023-02-14T11:35:33.829Z,99429.69
2023-02-14T11:38:03.289Z,99438.22
2023-02-14T11:40:33.625Z,99433.03
2023-02-14T11:43:15.371Z,99366.09
2023-02-14T11:45:45.702Z,99438.41
2023-02-14T11:48:31.480Z,99436.81
2023-02-14T11:51:11.137Z,99414.44
2023-02-14T11:53:46.063Z,99424.41
2023-02-14T11:56:14.476Z,99445.91
2023-02-14T11:58:58.235Z,99448.47
2023-02-14T12:01:30.132Z,99443.13
2023-02-14T12:04:05.307Z,99445.22
2023-02-14T12:06:34.869Z,99451.09
2023-02-14T12:09:24.654Z,99451.84
2023-02-14T12:12:00.693Z,99453.47
2023-02-14T12:14:33.736Z,99457.06
2023-02-14T12:17:23.658Z,99465.78
2023-02-14T12:20:17.362Z,99483.53
2023-02-14T12:22:51.943Z,99474.13
2023-02-14T12:25:25.370Z,99501.19
2023-02-14T12:27:58.957Z,99501.56
2023-02-14T12:30:30.600Z,99502.31
2023-02-14T12:32:58.064Z,99492.94
2023-02-14T12:35:47.076Z,99514.53
2023-02-14T12:38:41.444Z,99494.81
2023-02-14T12:41:25.526Z,99521.56
2023-02-14T12:43:56.019Z,99520.31
2023-02-14T12:46:41.122Z,99522.63
2023-02-14T12:49:32.818Z,99530.28
2023-02-14T12:52:21.557Z,99536.91
2023-02-14T12:55:30.019Z,99542.81
2023-02-14T12:58:19.246Z,99545.28
2023-02-14T13:01:09.110Z,99550.25
2023-02-14T13:03:59.174Z,99551.75
2023-02-14T13:06:38.950Z,99564.31
2023-02-14T13:09:27.624Z,99569.66
2023-02-14T13:12:13.344Z,99564.38
2023-02-14T13:15:09.556Z,99581.34
2023-02-14T13:17:39.986Z,99585.59
2023-02-14T13:20:33.384Z,99587.19
2023-02-14T13:23:05.441Z,99578.63
2023-02-14T13:25:42.986Z,99594.88
2023-02-14T13:28:13.301Z,99594.00
2023-02-14T13:30:43.240Z,99597.44
2023-02-14T13:33:18.607Z,99607.78
2023-02-14T13:35:46.179Z,99620.44
2023-02-14T13:38:16.448Z,99604.47
2023-02-14T13:40:43.767Z,99608.72
2023-02-14T13:43:10.850Z,99628.84
2023-02-14T13:45:40.760Z,99633.06
2023-02-14T13:48:19.177Z,99639.97
2023-02-14T13:50:49.043Z,99642.31
2023-02-14T13:53:44.115Z,99651.91
2023-02-14T13:56:16.816Z,99647.84
2023-02-14T13:58:55.285Z,99650.41
2023-02-14T14:01:48.241Z,99625.78
2023-02-14T14:04:31.980Z,99654.47
2023-02-14T14:07:05.258Z,99654.31
2023-02-14T14:09:41.358Z,99649.78
2023-02-14T14:12:26.513Z,99671.78
2023-02-14T14:15:05.644Z,99671.44
2023-02-14T14:18:15.840Z,99681.59
2023-02-14T14:20:52.704Z,99694.00
2023-02-14T14:23:35.497Z,99697.44
2023-02-14T14:26:03.808Z,99685.03
2023-02-14T14:28:33.222Z,99710.81
2023-02-14T14:31:00.476Z,99698.34
2023-02-14T14:33:37.848Z,99711.56
2023-02-14T14:36:08.987Z,99718.50
2023-02-14T14:38:48.216Z,99723.78
2023-02-14T14:41:15.321Z,99705.34
2023-02-14T14:43:42.852Z,99724.59
2023-02-14T14:46:13.468Z,99720.88
2023-02-14T14:48:47.191Z,99738.06
2023-02-14T14:51:35.647Z,99729.63
2023-02-14T14:54:07.155Z,99747.25
2023-02-14T14:56:39.851Z,99744.63
2023-02-14T14:59:31.342Z,99711.66
2023-02-14T15:01:58.775Z,99755.75
2023-02-14T15:04:35.323Z,99736.34
2023-02-14T15:07:24.181Z,99745.81
2023-02-14T15:09:51.467Z,99764.91
2023-02-14T15:12:41.468Z,99771.84
2023-02-14T15:15:12.035Z,99780.13
2023-02-14T15:17:42.166Z,99780.78
2023-02-14T15:20:22.215Z,99717.34
2023-02-14T15:22:52.912Z,99788.06
2023-02-14T15:25:27.066Z,99796.06
2023-02-14T15:27:54.296Z,99788.38
2023-02-14T15:30:26.786Z,99800.47
2023-02-14T15:32:54.440Z,99754.81
2023-02-14T15:35:28.030Z,99809.66
2023-02-14T15:37:57.364Z,99816.53
2023-02-14T15:40:27.668Z,99826.06
2023-02-14T15:42:59.256Z,99830.13
2023-02-14T15:45:27.680Z,99830.06
2023-02-14T15:47:59.043Z,99759.81
2023-02-14T15:50:30.340Z,99779.03
2023-02-14T15:53:05.121Z,99833.38
2023-02-14T15:55:35.993Z,99820.16
2023-02-14T15:58:07.331Z,99847.13
2023-02-14T16:00:35.713Z,99840.75
2023-02-14T16:03:07.506Z,99843.88
2023-02-14T16:05:34.950Z,99852.72
2023-02-14T16:08:06.312Z,99860.47
2023-02-14T16:10:36.194Z,99863.69
2023-02-14T16:13:19.109Z,99832.06
2023-02-14T16:16:06.941Z,99854.03
2023-02-14T16:18:42.957Z,99872.34
2023-02-14T16:21:21.680Z,99867.91
2023-02-14T16:24:11.546Z,99875.03
2023-02-14T16:26:40.756Z,99807.06
2023-02-14T16:29:10.705Z,99862.09
2023-02-14T16:32:15.046Z,99883.13
2023-02-14T16:34:43.725Z,99861.97
2023-02-14T16:37:31.711Z,99879.78
2023-02-14T16:40:00.887Z,99879.53
2023-02-14T16:42:28.290Z,99874.69
2023-02-14T16:44:55.409Z,99886.31
2023-02-14T16:47:22.586Z,99896.56
2023-02-14T16:49:50.811Z,99877.25
2023-02-14T16:52:23.954Z,99894.75
2023-02-14T16:54:52.084Z,99889.56
2023-02-14T16:57:28.236Z,99886.91
2023-02-14T16:59:56.893Z,99886.50
2023-02-14T17:02:28.519Z,99872.22
2023-02-14T17:04:55.941Z,99875.88
2023-02-14T17:07:23.546Z,99921.28
2023-02-14T17:09:55.867Z,99922.88
2023-02-14T17:12:26.954Z,99933.28
2023-02-14T17:14:56.499Z,99931.19
2023-02-14T17:17:23.612Z,99926.97
2023-02-14T17:19:52.812Z,99938.25
2023-02-14T17:22:20.695Z,99936.63
2023-02-14T17:24:47.753Z,99946.06
2023-02-14T17:27:14.895Z,99945.13
2023-02-14T17:29:41.988Z,99912.56
2023-02-14T17:32:13.901Z,99944.00
2023-02-14T17:34:41.319Z,99940.72
2023-02-14T17:37:08.467Z,99947.84
2023-02-14T17:39:35.475Z,99945.75
2023-02-14T17:42:02.598Z,99956.16
2023-02-14T17:44:32.596Z,99958.72
2023-02-14T17:46:59.733Z,99962.31
2023-02-14T17:49:26.946Z,99961.28
2023-02-14T17:51:54.846Z,99959.09
2023-02-14T17:54:21.913Z,99965.75
2023-02-14T17:56:48.960Z,99957.94
2023-02-14T17:59:16.446Z,99889.84
2023-02-14T18:01:43.842Z,99956.78
2023-02-14T18:04:10.911Z,99946.41
2023-02-14T18:06:38.000Z,99955.19
2023-02-14T18:09:06.154Z,99983.66
2023-02-14T18:11:33.302Z,99978.47
2023-02-14T18:14:01.923Z,99978.13
2023-02-14T18:16:29.329Z,99932.44
2023-02-14T18:18:56.568Z,99966.69
2023-02-14T18:21:24.731Z,99979.09
2023-02-14T18:23:53.430Z,99967.44
2023-02-14T18:26:20.485Z,99987.66
2023-02-14T18:28:47.559Z,99988.84
2023-02-14T18:31:18.380Z,99987.81
2023-02-14T18:33:48.945Z,99997.88
2023-02-14T18:36:19.418Z,100002.91
2023-02-14T18:38:48.507Z,99952.41
2023-02-14T18:41:18.022Z,99982.06
2023-02-14T18:43:45.265Z,99975.50
2023-02-14T18:46:17.894Z,100008.03
2023-02-14T18:48:45.851Z,100002.31
2023-02-14T18:51:23.711Z,99949.25
2023-02-14T18:53:52.390Z,100023.81
2023-02-14T18:56:22.733Z,100025.09
2023-02-14T18:58:52.915Z,100025.84
2023-02-14T19:01:23.850Z,100036.00
2023-02-14T19:03:53.020Z,100021.78
2023-02-14T19:06:20.845Z,100039.97
2023-02-14T19:08:48.477Z,100041.56
2023-02-14T19:11:23.862Z,100041.66
2023-02-14T19:13:53.590Z,100051.81
2023-02-14T19:16:24.134Z,100063.88
2023-02-14T19:18:53.359Z,100028.13
2023-02-14T19:21:23.253Z,100064.78
2023-02-14T19:23:52.234Z,100068.66
2023-02-14T19:26:20.587Z,100084.19
2023-02-14T19:28:49.701Z,100012.28
2023-02-14T19:31:17.078Z,100080.84
2023-02-14T19:33:46.397Z,100073.16
2023-02-14T19:36:16.588Z,100084.53
2023-02-14T19:38:46.078Z,100093.25
2023-02-14T19:41:16.829Z,100094.03
2023-02-14T19:43:48.009Z,100096.31
2023-02-14T19:46:17.752Z,100096.94
2023-02-14T19:48:45.024Z,100082.38
2023-02-14T19:51:21.826Z,100127.31
2023-02-14T19:53:50.161Z,100105.25
2023-02-14T19:56:22.465Z,100128.09
2023-02-14T19:58:51.074Z,100124.56
2023-02-14T20:01:26.167Z,100103.31
2023-02-14T20:03:53.794Z,100120.94
2023-02-14T20:06:25.477Z,100124.09
2023-02-14T20:08:53.039Z,100135.56
2023-02-14T20:11:50.142Z,100109.28
2023-02-14T20:14:19.620Z,100125.28
2023-02-14T20:16:47.915Z,100135.47
2023-02-14T20:19:18.266Z,100117.56
2023-02-14T20:21:48.057Z,100130.22
2023-02-14T20:24:17.709Z,100148.25
2023-02-14T20:26:45.842Z,100146.19
2023-02-14T20:29:13.356Z,100144.69
2023-02-14T20:31:43.227Z,100156.00
2023-02-14T20:34:11.266Z,100149.94
2023-02-14T20:36:38.647Z,100142.22
2023-02-14T20:39:07.428Z,100154.06
2023-02-14T20:41:35.246Z,100157.41
2023-02-14T20:44:05.139Z,100168.59
2023-02-14T20:46:32.986Z,100173.34
2023-02-14T20:49:00.119Z,100149.72
2023-02-14T20:51:27.583Z,100159.44
2023-02-14T20:53:55.062Z,100143.16
2023-02-14T20:56:23.719Z,100174.25
2023-02-14T20:58:51.112Z,100154.16
2023-02-14T21:01:23.478Z,100183.97
2023-02-14T21:03:52.471Z,100185.25
2023-02-14T21:06:22.136Z,100186.50
2023-02-14T21:08:49.189Z,100195.94
2023-02-14T21:11:18.129Z,100191.41
2023-02-14T21:13:45.209Z,100186.44
2023-02-14T21:16:15.624Z,100204.00
2023-02-14T21:18:48.920Z,100181.13
2023-02-14T21:21:20.459Z,100207.75
2023-02-14T21:23:51.324Z,100191.75
2023-02-14T21:26:20.135Z,100215.31
2023-02-14T21:28:47.947Z,100194.53
2023-02-14T21:31:18.195Z,100214.81
2023-02-14T21:33:45.277Z,100220.84
2023-02-14T21:36:14.664Z,100217.50
2023-02-14T21:38:42.100Z,100225.25
2023-02-14T21:41:14.309Z,100223.56
2023-02-14T21:43:43.385Z,100225.94
2023-02-14T21:46:13.110Z,100234.06
2023-02-14T21:48:59.344Z,100146.56
2023-02-14T21:51:27.688Z,100234.47
2023-02-14T21:53:55.778Z,100235.94
2023-02-14T21:56:23.962Z,100235.44
2023-02-14T21:58:52.870Z,100239.47
2023-02-14T22:01:23.167Z,100238.09
2023-02-14T22:03:50.704Z,100237.59
2023-02-14T22:06:18.156Z,100243.00
2023-02-14T22:08:45.195Z,100209.16
2023-02-14T22:11:15.713Z,100226.13
2023-02-14T22:13:43.051Z,100248.63
2023-02-14T22:16:13.258Z,100242.94
2023-02-14T22:18:42.936Z,100186.41
2023-02-14T22:21:14.221Z,100251.56
2023-02-14T22:23:44.841Z,100250.47
2023-02-14T22:26:20.380Z,100269.59
2023-02-14T22:28:48.866Z,100266.78
2023-02-14T22:31:17.780Z,100267.66
2023-02-14T22:33:45.861Z,100278.75
2023-02-14T22:36:12.883Z,100256.81
2023-02-14T22:38:39.872Z,100205.81
2023-02-14T22:41:11.358Z,100271.19
2023-02-14T22:43:39.218Z,100279.81
2023-02-14T22:46:12.167Z,100269.41
2023-02-14T22:48:40.374Z,100274.53
2023-02-14T22:51:17.309Z,100282.75
2023-02-14T22:53:44.388Z,100280.19
2023-02-14T22:56:13.770Z,100271.16
2023-02-14T22:58:40.967Z,100277.47
2023-02-14T23:01:13.967Z,100280.88
2023-02-14T23:03:41.065Z,100284.31
2023-02-14T23:06:08.158Z,100264.22
2023-02-14T23:08:35.229Z,100286.88
2023-02-14T23:11:14.004Z,100294.44
2023-02-14T23:14:00.975Z,100293.75
2023-02-14T23:16:46.650Z,100290.00
2023-02-14T23:19:37.912Z,100284.41
2023-02-14T23:22:09.860Z,100290.31
2023-02-14T23:24:37.144Z,100308.25
2023-02-14T23:27:05.051Z,100292.53
2023-02-14T23:29:32.492Z,100313.25
2023-02-14T23:32:00.061Z,100294.72
2023-02-14T23:34:29.476Z,100290.97
2023-02-14T23:36:56.681Z,100305.69
2023-02-14T23:39:23.794Z,100302.19
2023-02-14T23:41:50.943Z,100316.69
2023-02-14T23:44:24.206Z,100316.28
2023-02-14T23:46:53.877Z,100317.00
2023-02-14T23:49:21.418Z,100321.13
2023-02-14T23:51:50.192Z,100307.16
2023-02-14T23:54:17.999Z,100302.94
2023-02-14T23:56:45.871Z,100329.84
2023-02-14T23:59:14.621Z,100315.38
